createdAt,value
2022-12-14T00:02:11.941Z,0.80
2022-12-14T00:05:04.660Z,0.80
2022-12-14T00:07:56.718Z,0.80
2022-12-14T00:10:24.145Z,0.80
2022-12-14T00:12:51.499Z,0.80
2022-12-14T00:15:19.469Z,0.80
2022-12-14T00:17:46.779Z,0.80
2022-12-14T00:20:14.024Z,0.90
2022-12-14T00:22:41.224Z,0.90
2022-12-14T00:25:09.123Z,1.00
2022-12-14T00:27:36.338Z,0.90
2022-12-14T00:30:03.662Z,0.80
2022-12-14T00:32:30.909Z,0.80
2022-12-14T00:34:58.307Z,0.70
2022-12-14T00:37:25.511Z,0.70
2022-12-14T00:39:52.683Z,0.60
2022-12-14T00:42:19.919Z,0.60
2022-12-14T00:44:47.311Z,0.50
2022-12-14T00:47:14.629Z,0.50
2022-12-14T00:49:41.728Z,0.50
2022-12-14T00:52:09.027Z,0.50
2022-12-14T00:54:36.462Z,0.50
2022-12-14T00:57:03.782Z,0.50
2022-12-14T00:59:31.030Z,0.60
2022-12-14T01:01:58.323Z,0.60
2022-12-14T01:04:26.376Z,0.60
2022-12-14T01:06:54.677Z,0.60
2022-12-14T01:09:24.158Z,0.60
2022-12-14T01:11:52.077Z,0.70
2022-12-14T01:14:21.697Z,0.70
2022-12-14T01:16:48.865Z,0.80
2022-12-14T01:19:16.365Z,0.80
2022-12-14T01:21:43.516Z,0.80
2022-12-14T01:24:10.910Z,0.80
2022-12-14T01:26:39.933Z,0.70
2022-12-14T01:29:07.960Z,0.70
2022-12-14T01:31:37.233Z,0.70
2022-12-14T01:34:04.683Z,0.70
2022-12-14T01:36:33.893Z,0.70
2022-12-14T01:39:10.854Z,0.70
2022-12-14T01:41:40.856Z,0.70
2022-12-14T01:44:09.015Z,0.60
2022-12-14T01:46:48.127Z,0.60
2022-12-14T01:49:30.499Z,0.60
2022-12-14T01:52:12.189Z,0.60
2022-12-14T01:54:51.572Z,0.60
2022-12-14T01:57:29.519Z,0.50
2022-12-14T02:00:00.988Z,0.50
2022-12-14T02:02:33.254Z,0.50
2022-12-14T02:05:02.869Z,0.40
2022-12-14T02:07:31.445Z,0.40
2022-12-14T02:10:02.986Z,0.40
2022-12-14T02:12:38.068Z,0.40
2022-12-14T02:15:05.902Z,0.40
2022-12-14T02:17:33.355Z,0.40
2022-12-14T02:20:02.394Z,0.40
2022-12-14T02:23:15.182Z,0.30
2022-12-14T02:26:01.042Z,0.30
2022-12-14T02:28:54.559Z,0.30
2022-12-14T02:31:34.045Z,0.30
2022-12-14T02:34:24.510Z,0.30
2022-12-14T02:37:04.486Z,0.30
2022-12-14T02:39:40.711Z,0.20
2022-12-14T02:42:17.778Z,0.20
2022-12-14T02:45:01.935Z,0.20
2022-12-14T02:47:32.381Z,0.20
2022-12-14T02:50:08.524Z,0.20
2022-12-14T02:52:53.860Z,0.30
2022-12-14T02:55:30.496Z,0.30
2022-12-14T02:58:05.784Z,0.30
2022-12-14T03:00:36.854Z,0.30
2022-12-14T03:03:06.247Z,0.40
2022-12-14T03:05:34.492Z,0.40
2022-12-14T03:08:13.721Z,0.40
2022-12-14T03:11:04.189Z,0.40
2022-12-14T03:13:34.405Z,0.40
2022-12-14T03:16:04.777Z,0.40
2022-12-14T03:18:37.777Z,0.40
2022-12-14T03:21:10.579Z,0.40
2022-12-14T03:23:41.722Z,0.40
2022-12-14T03:26:26.164Z,0.30
2022-12-14T03:29:16.005Z,0.30
2022-12-14T03:31:49.322Z,0.20
2022-12-14T03:34:21.003Z,0.20
2022-12-14T03:37:12.720Z,0.10
2022-12-14T03:39:41.713Z,0.10
2022-12-14T03:42:29.019Z,0.00
2022-12-14T03:45:21.304Z,0.00
2022-12-14T03:48:06.142Z,-0.10
2022-12-14T03:50:36.788Z,-0.10
2022-12-14T03:53:20.872Z,-0.10
2022-12-14T03:56:16.323Z,0.00
2022-12-14T03:58:57.036Z,0.00
2022-12-14T04:01:58.226Z,0.00
2022-12-14T04:04:56.603Z,0.00
2022-12-14T04:07:51.386Z,0.00
2022-12-14T04:10:42.947Z,0.00
2022-12-14T04:13:38.314Z,-0.10
2022-12-14T04:16:31.005Z,-0.10
2022-12-14T04:19:02.781Z,-0.10
2022-12-14T04:21:48.370Z,-0.10
2022-12-14T04:24:40.045Z,-0.10
2022-12-14T04:27:23.116Z,-0.10
2022-12-14T04:30:00.572Z,-0.10
2022-12-14T04:33:28.608Z,-0.10
2022-12-14T04:35:59.382Z,-0.20
2022-12-14T04:38:34.846Z,-0.20
2022-12-14T04:41:07.055Z,-0.20
2022-12-14T04:43:38.989Z,-0.30
2022-12-14T04:46:10.836Z,-0.30
2022-12-14T04:48:59.209Z,-0.30
2022-12-14T04:51:36.636Z,-0.40
2022-12-14T04:54:35.821Z,-0.50
2022-12-14T04:57:15.857Z,-0.40
2022-12-14T04:59:47.040Z,-0.40
2022-12-14T05:02:38.034Z,-0.40
2022-12-14T05:05:42.154Z,-0.40
2022-12-14T05:08:37.026Z,-0.40
2022-12-14T05:11:50.172Z,-0.40
2022-12-14T05:14:11.496Z,-0.40
2022-12-14T05:16:39.229Z,-0.40
2022-12-14T05:19:10.661Z,-0.40
2022-12-14T05:21:49.904Z,-0.30
2022-12-14T05:24:17.518Z,-0.30
2022-12-14T05:26:44.960Z,-0.30
2022-12-14T05:29:12.787Z,-0.30
2022-12-14T05:31:40.063Z,-0.40
2022-12-14T05:34:07.428Z,-0.40
2022-12-14T05:36:35.661Z,-0.40
2022-12-14T05:39:02.930Z,-0.40
2022-12-14T05:41:30.232Z,-0.40
2022-12-14T05:43:57.475Z,-0.40
2022-12-14T05:46:24.655Z,-0.40
2022-12-14T05:48:51.989Z,-0.40
2022-12-14T05:51:19.194Z,-0.40
2022-12-14T05:53:46.486Z,-0.50
2022-12-14T05:56:13.953Z,-0.50
2022-12-14T05:58:41.342Z,-0.60
2022-12-14T06:01:17.016Z,-0.60
2022-12-14T06:03:46.333Z,-0.60
2022-12-14T06:06:14.308Z,-0.60
2022-12-14T06:08:44.858Z,-0.60
2022-12-14T06:11:23.456Z,-0.50
2022-12-14T06:13:50.899Z,-0.50
2022-12-14T06:16:24.364Z,-0.40
2022-12-14T06:18:57.215Z,-0.50
2022-12-14T06:21:29.742Z,-0.50
2022-12-14T06:23:57.708Z,-0.50
2022-12-14T06:26:26.832Z,-0.50
2022-12-14T06:28:54.033Z,-0.50
2022-12-14T06:31:23.953Z,-0.50
2022-12-14T06:33:51.871Z,-0.60
2022-12-14T06:36:27.385Z,-0.60
2022-12-14T06:38:56.068Z,-0.60
2022-12-14T06:41:24.648Z,-0.70
2022-12-14T06:43:52.459Z,-0.70
2022-12-14T06:46:24.238Z,-0.70
2022-12-14T06:48:53.842Z,-0.70
2022-12-14T06:51:22.053Z,-0.80
2022-12-14T06:53:54.123Z,-0.80
2022-12-14T06:56:22.742Z,-0.80
2022-12-14T06:58:50.345Z,-0.90
2022-12-14T07:01:23.081Z,-0.80
2022-12-14T07:03:53.595Z,-0.80
2022-12-14T07:06:22.507Z,-0.80
2022-12-14T07:08:52.470Z,-0.70
2022-12-14T07:11:20.182Z,-0.70
2022-12-14T07:13:48.753Z,-0.70
2022-12-14T07:16:19.381Z,-0.70
2022-12-14T07:18:46.804Z,-0.70
2022-12-14T07:21:16.999Z,-0.70
2022-12-14T07:23:46.302Z,-0.70
2022-12-14T07:26:16.774Z,-0.70
2022-12-14T07:28:45.369Z,-0.70
2022-12-14T07:31:15.779Z,-0.70
2022-12-14T07:33:43.358Z,-0.70
2022-12-14T07:36:11.852Z,-0.70
2022-12-14T07:38:41.136Z,-0.70
2022-12-14T07:41:10.961Z,-0.60
2022-12-14T07:43:42.599Z,-0.60
2022-12-14T07:46:12.990Z,-0.60
2022-12-14T07:48:44.957Z,-0.60
2022-12-14T07:51:15.249Z,-0.60
2022-12-14T07:53:43.212Z,-0.60
2022-12-14T07:56:13.621Z,-0.70
2022-12-14T07:58:41.393Z,-0.60
2022-12-14T08:01:13.769Z,-0.70
2022-12-14T08:03:53.035Z,-0.70
2022-12-14T08:06:22.435Z,-0.60
2022-12-14T08:08:50.408Z,-0.60
2022-12-14T08:11:18.477Z,-0.60
2022-12-14T08:13:46.995Z,-0.60
2022-12-14T08:16:17.685Z,-0.60
2022-12-14T08:18:45.298Z,-0.50
2022-12-14T08:21:15.539Z,-0.50
2022-12-14T08:23:42.800Z,-0.50
2022-12-14T08:26:10.119Z,-0.50
2022-12-14T08:28:37.486Z,-0.50
2022-12-14T08:31:19.471Z,-0.50
2022-12-14T08:33:47.858Z,-0.60
2022-12-14T08:36:37.824Z,-0.60
2022-12-14T08:39:08.129Z,-0.60
2022-12-14T08:41:36.015Z,-0.60
2022-12-14T08:44:04.904Z,-0.60
2022-12-14T08:46:35.085Z,-0.60
2022-12-14T08:49:02.432Z,-0.60
2022-12-14T08:51:30.160Z,-0.60
2022-12-14T08:53:58.496Z,-0.60
2022-12-14T08:56:27.656Z,-0.60
2022-12-14T08:58:55.469Z,-0.60
2022-12-14T09:01:32.780Z,-0.60
2022-12-14T09:04:07.258Z,-0.50
2022-12-14T09:06:37.427Z,-0.40
2022-12-14T09:09:10.413Z,-0.30
2022-12-14T09:11:43.438Z,-0.30
2022-12-14T09:14:10.971Z,-0.30
2022-12-14T09:16:38.357Z,-0.30
2022-12-14T09:19:06.228Z,-0.40
2022-12-14T09:21:33.632Z,-0.40
2022-12-14T09:24:01.509Z,-0.50
2022-12-14T09:26:30.088Z,-0.50
2022-12-14T09:28:59.438Z,-0.50
2022-12-14T09:31:29.006Z,-0.50
2022-12-14T09:33:56.992Z,-0.50
2022-12-14T09:36:28.717Z,-0.50
2022-12-14T09:38:57.830Z,-0.50
2022-12-14T09:41:35.362Z,-0.50
2022-12-14T09:44:18.561Z,-0.40
2022-12-14T09:46:50.243Z,-0.30
2022-12-14T09:49:53.561Z,-0.20
2022-12-14T09:52:29.958Z,-0.20
2022-12-14T09:54:58.289Z,-0.20
2022-12-14T09:57:34.819Z,-0.20
2022-12-14T10:00:02.428Z,-0.20
2022-12-14T10:03:12.808Z,-0.20
2022-12-14T10:06:17.775Z,-0.10
2022-12-14T10:09:20.360Z,-0.10
2022-12-14T10:12:02.770Z,-0.10
2022-12-14T10:14:48.801Z,-0.10
2022-12-14T10:17:22.155Z,0.00
2022-12-14T10:19:58.970Z,0.10
2022-12-14T10:22:32.997Z,0.20
2022-12-14T10:25:28.196Z,0.20
2022-12-14T10:28:11.976Z,0.40
2022-12-14T10:30:42.326Z,0.40
2022-12-14T10:33:32.085Z,0.50
2022-12-14T10:36:07.631Z,0.50
2022-12-14T10:38:37.700Z,0.40
2022-12-14T10:41:11.003Z,0.40
2022-12-14T10:43:44.754Z,0.30
2022-12-14T10:46:40.459Z,0.30
2022-12-14T10:49:27.239Z,0.30
2022-12-14T10:52:17.902Z,0.30
2022-12-14T10:54:47.953Z,0.50
2022-12-14T10:57:21.101Z,0.50
2022-12-14T11:00:05.670Z,0.60
2022-12-14T11:02:39.507Z,0.50
2022-12-14T11:05:37.152Z,0.40
2022-12-14T11:08:09.474Z,0.30
2022-12-14T11:10:40.960Z,0.30
2022-12-14T11:13:16.956Z,0.20
2022-12-14T11:15:47.110Z,0.10
2022-12-14T11:18:17.613Z,0.10
2022-12-14T11:21:03.756Z,0.10
2022-12-14T11:23:42.277Z,0.20
2022-12-14T11:26:23.952Z,0.20
2022-12-14T11:30:01.869Z,0.20
2022-12-14T11:32:29.290Z,0.20
2022-12-14T11:34:59.270Z,0.20
2022-12-14T11:37:31.820Z,0.30
2022-12-14T11:40:06.452Z,0.30
2022-12-14T11:42:36.314Z,0.40
2022-12-14T11:45:40.057Z,0.50
2022-12-14T11:48:16.303Z,0.50
2022-12-14T11:50:45.349Z,0.40
2022-12-14T11:53:17.851Z,0.40
2022-12-14T11:55:59.341Z,0.30
2022-12-14T11:58:32.462Z,0.30
2022-12-14T12:01:04.364Z,0.30
2022-12-14T12:03:38.014Z,0.30
2022-12-14T12:06:18.193Z,0.30
2022-12-14T12:08:46.708Z,0.30
2022-12-14T12:11:20.362Z,0.30
2022-12-14T12:14:00.972Z,0.30
2022-12-14T12:16:30.951Z,0.30
2022-12-14T12:19:28.039Z,0.40
2022-12-14T12:21:56.686Z,0.40
2022-12-14T12:24:34.493Z,0.50
2022-12-14T12:27:11.834Z,0.60
2022-12-14T12:29:51.664Z,0.60
2022-12-14T12:32:35.705Z,0.70
2022-12-14T12:35:15.013Z,0.70
2022-12-14T12:38:14.546Z,0.80
2022-12-14T12:41:01.624Z,0.80
2022-12-14T12:43:38.234Z,0.80
2022-12-14T12:46:15.488Z,0.80
2022-12-14T12:48:50.200Z,0.70
2022-12-14T12:51:27.448Z,0.70
2022-12-14T12:53:59.928Z,0.70
2022-12-14T12:56:43.765Z,0.60
2022-12-14T12:59:33.488Z,0.60
2022-12-14T13:02:17.250Z,0.60
2022-12-14T13:04:52.296Z,0.50
2022-12-14T13:07:29.048Z,0.50
2022-12-14T13:10:25.014Z,0.40
2022-12-14T13:12:58.571Z,0.40
2022-12-14T13:15:39.618Z,0.50
2022-12-14T13:18:56.726Z,0.40
2022-12-14T13:21:24.418Z,0.50
2022-12-14T13:23:51.725Z,0.50
2022-12-14T13:26:59.645Z,0.60
2022-12-14T13:29:57.333Z,0.60
2022-12-14T13:32:46.539Z,0.60
2022-12-14T13:35:51.525Z,0.60
2022-12-14T13:38:22.770Z,0.60
2022-12-14T13:41:27.949Z,0.60
2022-12-14T13:44:33.261Z,0.60
2022-12-14T13:47:06.625Z,0.70
2022-12-14T13:49:34.107Z,0.70
2022-12-14T13:52:01.505Z,0.70
2022-12-14T13:54:34.612Z,0.70
2022-12-14T13:57:06.415Z,0.70
2022-12-14T13:59:40.300Z,0.70
2022-12-14T14:02:30.337Z,0.70
2022-12-14T14:05:16.565Z,0.60
2022-12-14T14:07:56.052Z,0.60
2022-12-14T14:10:35.610Z,0.70
2022-12-14T14:13:27.774Z,0.70
2022-12-14T14:16:27.609Z,0.60
2022-12-14T14:19:05.008Z,0.60
2022-12-14T14:22:22.331Z,0.60
2022-12-14T14:24:58.530Z,0.60
2022-12-14T14:27:27.487Z,0.60
2022-12-14T14:29:56.311Z,0.50
2022-12-14T14:32:29.352Z,0.50
2022-12-14T14:34:57.124Z,0.50
2022-12-14T14:37:39.334Z,0.50
2022-12-14T14:40:38.258Z,0.50
2022-12-14T14:43:29.294Z,0.50
2022-12-14T14:46:01.718Z,0.40
2022-12-14T14:48:35.314Z,0.50
2022-12-14T14:51:20.763Z,0.50
2022-12-14T14:53:50.213Z,0.50
2022-12-14T14:56:30.530Z,0.40
2022-12-14T14:59:19.571Z,0.40
2022-12-14T15:02:00.682Z,0.40
2022-12-14T15:04:48.232Z,0.40
2022-12-14T15:07:23.601Z,0.30
2022-12-14T15:10:28.406Z,0.30
2022-12-14T15:13:01.685Z,0.30
2022-12-14T15:15:39.483Z,0.30
2022-12-14T15:18:20.460Z,0.30
2022-12-14T15:21:02.358Z,0.20
2022-12-14T15:23:37.663Z,0.20
2022-12-14T15:26:20.400Z,0.20
2022-12-14T15:28:54.184Z,0.20
2022-12-14T15:31:34.000Z,0.20
2022-12-14T15:34:03.274Z,0.20
2022-12-14T15:36:40.263Z,0.20
2022-12-14T15:39:07.518Z,0.20
2022-12-14T15:41:36.109Z,0.30
2022-12-14T15:44:03.313Z,0.30
2022-12-14T15:46:38.685Z,0.30
2022-12-14T15:49:10.830Z,0.30
2022-12-14T15:51:42.538Z,0.20
2022-12-14T15:54:19.000Z,0.20
2022-12-14T15:56:49.332Z,0.30
2022-12-14T15:59:34.515Z,0.30
2022-12-14T16:02:15.370Z,0.30
2022-12-14T16:04:44.189Z,0.30
2022-12-14T16:07:31.587Z,0.30
2022-12-14T16:10:32.160Z,0.30
2022-12-14T16:13:17.362Z,0.30
2022-12-14T16:15:47.223Z,0.30
2022-12-14T16:18:22.014Z,0.30
2022-12-14T16:21:02.483Z,0.30
2022-12-14T16:23:43.449Z,0.30
2022-12-14T16:26:14.401Z,0.30
2022-12-14T16:28:41.687Z,0.30
2022-12-14T16:31:11.927Z,0.30
2022-12-14T16:33:41.852Z,0.30
2022-12-14T16:36:24.453Z,0.30
2022-12-14T16:39:02.047Z,0.30
2022-12-14T16:41:42.000Z,0.20
2022-12-14T16:44:39.298Z,0.20
2022-12-14T16:47:16.056Z,0.20
2022-12-14T16:49:52.400Z,0.20
2022-12-14T16:52:28.188Z,0.20
2022-12-14T16:55:40.249Z,0.20
2022-12-14T16:58:18.619Z,0.30
2022-12-14T17:01:03.913Z,0.30
2022-12-14T17:03:32.109Z,0.30
2022-12-14T17:06:06.285Z,0.30
2022-12-14T17:08:38.609Z,0.30
2022-12-14T17:11:07.098Z,0.30
2022-12-14T17:13:35.165Z,0.30
2022-12-14T17:16:10.125Z,0.30
2022-12-14T17:18:41.886Z,0.30
2022-12-14T17:21:19.013Z,0.30
2022-12-14T17:23:46.930Z,0.40
2022-12-14T17:26:26.492Z,0.40
2022-12-14T17:28:55.334Z,0.40
2022-12-14T17:31:27.934Z,0.40
2022-12-14T17:33:57.892Z,0.40
2022-12-14T17:36:30.372Z,0.40
2022-12-14T17:39:01.592Z,0.40
2022-12-14T17:41:30.086Z,0.40
2022-12-14T17:43:58.547Z,0.50
2022-12-14T17:46:29.627Z,0.50
2022-12-14T17:48:58.442Z,0.50
2022-12-14T17:51:31.132Z,0.50
2022-12-14T17:54:00.411Z,0.50
2022-12-14T17:56:29.625Z,0.50
2022-12-14T17:58:56.832Z,0.60
2022-12-14T18:01:26.117Z,0.70
2022-12-14T18:03:55.000Z,0.70
2022-12-14T18:06:23.607Z,0.80
2022-12-14T18:08:50.812Z,0.80
2022-12-14T18:12:00.525Z,0.80
2022-12-14T18:14:32.059Z,0.90
2022-12-14T18:17:01.125Z,0.90
2022-12-14T18:19:29.940Z,0.90
2022-12-14T18:21:58.219Z,0.80
2022-12-14T18:24:26.190Z,0.70
2022-12-14T18:26:55.366Z,0.70
2022-12-14T18:29:26.023Z,0.80
2022-12-14T18:31:53.394Z,0.80
2022-12-14T18:34:24.172Z,0.80
2022-12-14T18:36:51.521Z,0.90
2022-12-14T18:39:20.447Z,0.90
2022-12-14T18:41:50.468Z,0.90
2022-12-14T18:44:42.755Z,0.90
2022-12-14T18:47:40.050Z,0.90
2022-12-14T18:50:02.323Z,0.90
2022-12-14T18:52:33.443Z,0.90
2022-12-14T18:55:02.358Z,0.90
2022-12-14T18:57:29.502Z,0.90
2022-12-14T18:59:57.392Z,0.90
2022-12-14T19:02:25.895Z,1.00
2022-12-14T19:05:25.615Z,1.00
2022-12-14T19:07:55.591Z,1.00
2022-12-14T19:10:25.694Z,1.00
2022-12-14T19:13:25.835Z,1.10
2022-12-14T19:15:58.270Z,1.20
2022-12-14T19:18:29.666Z,1.20
2022-12-14T19:23:55.943Z,1.10
2022-12-14T19:26:23.610Z,0.90
2022-12-14T19:28:54.822Z,0.70
2022-12-14T19:31:53.104Z,0.70
2022-12-14T19:34:22.584Z,0.70
2022-12-14T19:37:16.509Z,0.70
2022-12-14T19:39:44.561Z,0.70
2022-12-14T19:42:12.176Z,0.60
2022-12-14T19:44:43.898Z,0.50
2022-12-14T19:47:16.488Z,0.40
2022-12-14T19:50:09.254Z,0.40
2022-12-14T19:52:38.567Z,0.40
2022-12-14T19:55:35.476Z,0.40
2022-12-14T19:58:03.503Z,0.50
2022-12-14T20:00:32.291Z,0.50
2022-12-14T20:03:01.496Z,0.50
2022-12-14T20:05:28.916Z,0.60
2022-12-14T20:08:23.615Z,0.50
2022-12-14T20:10:54.765Z,0.50
2022-12-14T20:13:24.613Z,0.50
2022-12-14T20:16:00.986Z,0.50
2022-12-14T20:18:52.958Z,0.40
2022-12-14T20:21:23.731Z,0.40
2022-12-14T20:23:52.853Z,0.30
2022-12-14T20:26:22.598Z,0.30
2022-12-14T20:28:53.989Z,0.30
2022-12-14T20:31:26.193Z,0.30
2022-12-14T20:33:56.068Z,0.30
2022-12-14T20:36:23.443Z,0.30
2022-12-14T20:39:21.008Z,0.30
2022-12-14T20:41:48.243Z,0.30
2022-12-14T20:44:16.482Z,0.30
2022-12-14T20:46:47.585Z,0.30
2022-12-14T20:49:40.528Z,0.40
2022-12-14T20:52:08.380Z,0.40
2022-12-14T20:54:35.477Z,0.40
2022-12-14T20:57:03.120Z,0.40
2022-12-14T20:59:32.710Z,0.40
2022-12-14T21:02:12.881Z,0.40
2022-12-14T21:04:47.807Z,0.40
2022-12-14T21:07:42.332Z,0.50
2022-12-14T21:10:10.805Z,0.50
2022-12-14T21:12:38.582Z,0.50
2022-12-14T21:15:07.535Z,0.50
2022-12-14T21:17:36.719Z,0.50
2022-12-14T21:20:34.438Z,0.50
2022-12-14T21:23:03.740Z,0.50
2022-12-14T21:25:31.020Z,0.50
2022-12-14T21:27:58.190Z,0.60
2022-12-14T21:30:26.856Z,0.60
2022-12-14T21:32:55.452Z,0.60
2022-12-14T21:35:23.624Z,0.60
2022-12-14T21:37:50.948Z,0.70
2022-12-14T21:40:38.650Z,0.70
2022-12-14T21:43:09.095Z,0.70
2022-12-14T21:46:03.506Z,0.70
2022-12-14T21:48:31.288Z,0.80
2022-12-14T21:51:01.638Z,0.80
2022-12-14T21:53:35.148Z,0.80
2022-12-14T21:56:22.694Z,0.80
2022-12-14T21:58:53.928Z,0.80
2022-12-14T22:01:21.705Z,0.80
2022-12-14T22:03:56.472Z,0.70
2022-12-14T22:06:24.580Z,0.70
2022-12-14T22:08:53.126Z,0.70
2022-12-14T22:11:21.813Z,0.80
2022-12-14T22:13:49.579Z,0.80
2022-12-14T22:16:17.445Z,0.80
2022-12-14T22:18:46.954Z,0.80
2022-12-14T22:21:16.466Z,0.80
2022-12-14T22:23:44.163Z,0.80
2022-12-14T22:26:14.485Z,0.80
2022-12-14T22:28:43.330Z,0.80
2022-12-14T22:34:07.065Z,0.90
2022-12-14T22:36:34.519Z,1.00
2022-12-14T22:39:28.489Z,1.00
2022-12-14T22:41:57.722Z,1.10
2022-12-14T22:44:24.898Z,1.10
2022-12-14T22:46:52.516Z,1.10
2022-12-14T22:49:20.418Z,1.10
2022-12-14T22:51:47.792Z,1.10
2022-12-14T22:54:21.157Z,1.20
2022-12-14T22:57:19.516Z,1.30
2022-12-14T23:00:04.920Z,1.30
2022-12-14T23:02:32.585Z,1.20
2022-12-14T23:05:00.042Z,1.20
2022-12-14T23:07:27.515Z,1.20
2022-12-14T23:10:13.175Z,1.20
2022-12-14T23:12:58.692Z,1.20
2022-12-14T23:15:45.479Z,1.20
2022-12-14T23:18:31.240Z,1.20
2022-12-14T23:21:17.082Z,1.20
2022-12-14T23:24:04.364Z,1.20
2022-12-14T23:26:50.586Z,1.30
2022-12-14T23:29:36.423Z,1.30
2022-12-14T23:32:22.200Z,1.30
2022-12-14T23:35:07.732Z,1.30
2022-12-14T23:37:53.689Z,1.30
2022-12-14T23:40:39.797Z,1.30
2022-12-14T23:43:31.162Z,1.30
2022-12-14T23:46:17.885Z,1.20
2022-12-14T23:49:03.777Z,1.20
2022-12-14T23:51:49.865Z,1.20
2022-12-14T23:54:35.810Z,1.20
2022-12-14T23:57:25.874Z,1.20
